Airfield :
LOGIN :

Register | Disclaimer

   EN    FR    IT 

 










Legend :    VFR   Marginal VFR   IFR   Intensive IFR   Very Intensive IFR
Visi :
Ceiling :
>= 8 km
>= 3000ft
5 to 8 km
1000 to 3000 ft
1500m to 5 km
500 to 1000 ft
800 to 1500m
200 to 500 ft
< 800m
< 200 ft
Symbols :   Thunderstorms  Fog  Heavy snow  Heavy precipitations  Wind > 20 kt
SIGMETs :     Misc.  Thunderstorms  Icing  Turbulence  Mountain Waves  Volcanic Ashes






- Airport Elevation : 616 ft
- IATA code : PUF


LFBP - Pau

CURRENT METAR :
  • 191430Z AUTO 11002KT CAVOK 19/01 Q1016 NOSIG

EXPIRED METARs :
  • 191400Z AUTO VRB01KT CAVOK 19/01 Q1016 NOSIG
  • 191330Z AUTO VRB01KT CAVOK 19/02 Q1017 NOSIG
  • 191300Z AUTO 14004KT 100V190 CAVOK 18/02 Q1017 NOSIG
  • 191230Z AUTO 14005KT CAVOK 17/01 Q1018 NOSIG
  • 191200Z AUTO 14006KT CAVOK 16/04 Q1018 NOSIG

TAF TAF LFBP
Valid from the 19 at 12:00 until the 20 at 12:00 UTC


191100Z 1912/2012 15005KT CAVOK
BECMG 2000/2002 18010KT
TEMPO 2006/2012 18015G25KT



MET'MAP, your aeronautical weather chart ! - Copyright ORBIFLY December 2007 - Disclaimer

ORBIFLY MET'MAP TEAM :

Programming & Development : Alexandra Zaïnal
Concept & original design : Baudouin d'Aumeries
Assistance for programming : Marc-Olivier Méhu
Technical & hardware support : Manuel Goepfert

Contact : metmap@orbifly.com




SOURCES & CREDITS :

   NOAA